ěÝzenÝ letovÚho provozu ╚eskÚ republiky
Letiste: LKPD Aktualizace: 31.01.2023 15:47:33  UTC
 SPECI LKPD 31.01. 15:46 ...
SPECI LKPD 311546Z 26020KT 9999 -RA OVC017 03/00 Q1016 NOSIG RMK WHT=
 TAF LKPD 31.01. 11:00 ...
TAF LKPD 311100Z 3112/0112 27015KT 9999 BKN040      TEMPO 3112/0112 5000 RA BKN020      PROB40 TEMPO 3115/0103 28017G30KT 3000 RASN BKN010=